createdAt,value
2023-05-05T07:35:24.411Z,32.56
2023-05-05T07:35:35.705Z,32.36
2023-05-05T07:35:47.298Z,32.13
2023-05-05T07:35:58.643Z,32.10
2023-05-05T07:36:10.240Z,32.04
2023-05-05T07:36:21.566Z,32.06
2023-05-05T07:36:33.171Z,32.01
2023-05-05T07:36:44.510Z,32.02
2023-05-05T07:36:56.078Z,32.01
2023-05-05T07:37:07.424Z,31.99
2023-05-05T07:37:19.025Z,31.98
2023-05-05T07:37:30.361Z,31.96
2023-05-05T07:37:41.960Z,31.97
2023-05-05T07:37:53.296Z,31.97
2023-05-05T07:38:04.855Z,31.93
2023-05-05T07:38:16.186Z,31.94
2023-05-05T07:38:27.801Z,31.91
2023-05-05T07:38:39.136Z,31.92
2023-05-05T07:38:50.706Z,31.91
2023-05-05T07:39:02.040Z,31.91
2023-05-05T07:39:13.641Z,31.91
2023-05-05T07:39:24.983Z,31.89
2023-05-05T07:39:36.572Z,31.87
2023-05-05T07:39:47.908Z,31.88
2023-05-05T07:39:59.489Z,31.89
2023-05-05T07:40:11.124Z,31.86
2023-05-05T07:40:22.913Z,31.89
2023-05-05T07:40:34.298Z,31.87
2023-05-05T07:40:45.893Z,31.88
2023-05-05T07:40:57.229Z,31.87
2023-05-05T07:41:08.832Z,31.85
2023-05-05T07:41:20.166Z,31.87
2023-05-05T07:41:31.744Z,31.86
2023-05-05T07:41:43.084Z,31.87
2023-05-05T07:41:54.665Z,31.86
2023-05-05T07:42:05.970Z,31.86
2023-05-05T07:42:17.565Z,31.85
2023-05-05T07:42:28.905Z,31.85
2023-05-05T07:42:40.499Z,31.87
2023-05-05T07:42:51.849Z,31.84
2023-05-05T07:43:03.422Z,31.83
2023-05-05T07:43:14.749Z,31.83
2023-05-05T07:43:26.350Z,31.83
2023-05-05T07:43:39.343Z,31.82
2023-05-05T07:43:48.850Z,31.89
2023-05-05T07:44:00.421Z,31.84
2023-05-05T07:44:11.773Z,31.82
2023-05-05T07:44:23.357Z,31.83
2023-05-05T07:44:34.663Z,31.83
2023-05-05T07:44:46.262Z,31.82
2023-05-05T07:44:57.577Z,31.83
2023-05-05T07:45:09.233Z,31.84
2023-05-05T07:45:20.546Z,31.82
2023-05-05T07:45:32.150Z,31.82
2023-05-05T07:45:43.546Z,31.84
2023-05-05T07:45:55.163Z,31.82
2023-05-05T07:46:06.495Z,31.83
2023-05-05T07:46:18.131Z,31.82
2023-05-05T07:46:29.670Z,31.82
2023-05-05T07:46:41.310Z,31.83
2023-05-05T07:46:52.618Z,31.83
2023-05-05T07:47:04.190Z,31.81
2023-05-05T07:47:15.519Z,31.82
2023-05-05T07:47:27.131Z,31.82
2023-05-05T07:47:38.484Z,31.84
2023-05-05T07:47:50.128Z,31.81
2023-05-05T07:48:01.576Z,31.82
2023-05-05T07:48:13.271Z,31.83
2023-05-05T07:48:24.605Z,31.81
2023-05-05T07:48:36.200Z,31.82
2023-05-05T07:48:47.563Z,31.81
2023-05-05T07:48:59.165Z,31.80
2023-05-05T07:49:10.511Z,31.80
2023-05-05T07:49:22.117Z,31.83
2023-05-05T07:49:33.438Z,31.82
2023-05-05T07:49:45.011Z,31.81
2023-05-05T07:49:56.355Z,31.80
2023-05-05T07:50:08.045Z,31.80
2023-05-05T07:50:19.485Z,31.82
2023-05-05T07:50:31.157Z,31.79
2023-05-05T07:50:42.737Z,31.80
2023-05-05T07:50:54.364Z,31.80
2023-05-05T07:51:05.700Z,31.82
2023-05-05T07:51:17.296Z,31.81
2023-05-05T07:51:28.786Z,31.81
2023-05-05T07:51:40.366Z,31.80
2023-05-05T07:51:51.688Z,31.79
2023-05-05T07:52:03.264Z,31.82
2023-05-05T07:52:14.611Z,31.81
